sensor_id;sensor_type;location;lat;lon;timestamp;P1;durP1;ratioP1;P2;durP2;ratioP2
27666;SDS011;15074;50.940;5.282;2023-08-08T00:02:06;3.50;;;2.72;;
27666;SDS011;15074;50.940;5.282;2023-08-08T00:04:31;3.72;;;3.10;;
27666;SDS011;15074;50.940;5.282;2023-08-08T00:06:58;4.50;;;2.33;;
27666;SDS011;15074;50.940;5.282;2023-08-08T00:09:23;3.38;;;2.83;;
27666;SDS011;15074;50.940;5.282;2023-08-08T00:11:49;3.70;;;3.13;;
27666;SDS011;15074;50.940;5.282;2023-08-08T00:14:15;5.10;;;3.13;;
27666;SDS011;15074;50.940;5.282;2023-08-08T00:16:41;4.78;;;3.08;;
27666;SDS011;15074;50.940;5.282;2023-08-08T00:19:06;4.70;;;3.13;;
27666;SDS011;15074;50.940;5.282;2023-08-08T00:21:32;3.38;;;2.80;;
27666;SDS011;15074;50.940;5.282;2023-08-08T00:23:58;3.58;;;2.30;;
27666;SDS011;15074;50.940;5.282;2023-08-08T00:26:23;10.02;;;3.38;;
27666;SDS011;15074;50.940;5.282;2023-08-08T00:28:49;6.28;;;2.83;;
27666;SDS011;15074;50.940;5.282;2023-08-08T00:31:15;6.70;;;2.72;;
27666;SDS011;15074;50.940;5.282;2023-08-08T00:33:42;4.18;;;2.67;;
27666;SDS011;15074;50.940;5.282;2023-08-08T00:36:08;6.50;;;2.47;;
27666;SDS011;15074;50.940;5.282;2023-08-08T00:38:34;3.75;;;2.45;;
27666;SDS011;15074;50.940;5.282;2023-08-08T00:40:59;2.63;;;2.35;;
27666;SDS011;15074;50.940;5.282;2023-08-08T00:43:25;7.00;;;2.80;;
27666;SDS011;15074;50.940;5.282;2023-08-08T00:45:50;3.30;;;2.13;;
27666;SDS011;15074;50.940;5.282;2023-08-08T00:48:16;3.78;;;2.45;;
27666;SDS011;15074;50.940;5.282;2023-08-08T00:50:44;4.82;;;2.88;;
27666;SDS011;15074;50.940;5.282;2023-08-08T00:53:10;5.70;;;2.42;;
27666;SDS011;15074;50.940;5.282;2023-08-08T00:55:37;4.50;;;2.58;;
27666;SDS011;15074;50.940;5.282;2023-08-08T00:58:03;6.05;;;2.72;;
27666;SDS011;15074;50.940;5.282;2023-08-08T01:00:29;3.22;;;2.28;;
27666;SDS011;15074;50.940;5.282;2023-08-08T01:02:55;5.32;;;2.40;;
27666;SDS011;15074;50.940;5.282;2023-08-08T01:05:20;4.50;;;2.53;;
27666;SDS011;15074;50.940;5.282;2023-08-08T01:10:32;3.35;;;2.28;;
27666;SDS011;15074;50.940;5.282;2023-08-08T01:13:03;4.35;;;2.47;;
27666;SDS011;15074;50.940;5.282;2023-08-08T01:15:33;4.22;;;2.22;;
27666;SDS011;15074;50.940;5.282;2023-08-08T01:18:04;4.63;;;2.83;;
27666;SDS011;15074;50.940;5.282;2023-08-08T01:20:33;4.95;;;2.60;;
27666;SDS011;15074;50.940;5.282;2023-08-08T01:23:09;5.35;;;2.30;;
27666;SDS011;15074;50.940;5.282;2023-08-08T01:25:36;7.55;;;2.88;;
27666;SDS011;15074;50.940;5.282;2023-08-08T01:28:03;4.72;;;2.63;;
27666;SDS011;15074;50.940;5.282;2023-08-08T01:30:30;4.70;;;3.15;;
27666;SDS011;15074;50.940;5.282;2023-08-08T01:32:55;7.85;;;2.67;;
27666;SDS011;15074;50.940;5.282;2023-08-08T01:35:21;6.50;;;2.90;;
27666;SDS011;15074;50.940;5.282;2023-08-08T01:37:50;5.47;;;3.42;;
27666;SDS011;15074;50.940;5.282;2023-08-08T01:40:19;4.82;;;2.75;;
27666;SDS011;15074;50.940;5.282;2023-08-08T01:42:46;6.15;;;3.88;;
27666;SDS011;15074;50.940;5.282;2023-08-08T01:45:13;4.05;;;2.88;;
27666;SDS011;15074;50.940;5.282;2023-08-08T01:47:40;5.55;;;3.40;;
27666;SDS011;15074;50.940;5.282;2023-08-08T01:50:06;5.93;;;3.58;;
27666;SDS011;15074;50.940;5.282;2023-08-08T01:52:33;5.63;;;3.50;;
27666;SDS011;15074;50.940;5.282;2023-08-08T01:54:59;6.45;;;4.25;;
27666;SDS011;15074;50.940;5.282;2023-08-08T01:57:25;4.85;;;3.30;;
27666;SDS011;15074;50.940;5.282;2023-08-08T01:59:51;8.32;;;2.95;;
27666;SDS011;15074;50.940;5.282;2023-08-08T02:02:16;7.10;;;3.28;;
27666;SDS011;15074;50.940;5.282;2023-08-08T02:04:42;5.97;;;3.63;;
27666;SDS011;15074;50.940;5.282;2023-08-08T02:07:08;5.60;;;3.75;;
27666;SDS011;15074;50.940;5.282;2023-08-08T02:09:34;5.75;;;3.70;;
27666;SDS011;15074;50.940;5.282;2023-08-08T02:12:00;6.90;;;3.30;;
27666;SDS011;15074;50.940;5.282;2023-08-08T02:14:25;6.00;;;3.65;;
27666;SDS011;15074;50.940;5.282;2023-08-08T02:16:51;6.25;;;3.00;;
27666;SDS011;15074;50.940;5.282;2023-08-08T02:19:17;4.78;;;3.47;;
27666;SDS011;15074;50.940;5.282;2023-08-08T02:21:42;5.32;;;3.15;;
27666;SDS011;15074;50.940;5.282;2023-08-08T02:24:08;6.68;;;3.60;;
27666;SDS011;15074;50.940;5.282;2023-08-08T02:26:33;6.53;;;4.15;;
27666;SDS011;15074;50.940;5.282;2023-08-08T02:28:59;7.15;;;3.90;;
27666;SDS011;15074;50.940;5.282;2023-08-08T02:31:25;5.25;;;4.00;;
27666;SDS011;15074;50.940;5.282;2023-08-08T02:33:50;10.10;;;4.60;;
27666;SDS011;15074;50.940;5.282;2023-08-08T02:36:17;6.97;;;3.70;;
27666;SDS011;15074;50.940;5.282;2023-08-08T02:38:43;7.50;;;3.55;;
27666;SDS011;15074;50.940;5.282;2023-08-08T02:41:09;3.83;;;3.15;;
27666;SDS011;15074;50.940;5.282;2023-08-08T02:43:35;11.10;;;4.15;;
27666;SDS011;15074;50.940;5.282;2023-08-08T02:46:01;9.95;;;4.90;;
27666;SDS011;15074;50.940;5.282;2023-08-08T02:48:27;9.57;;;4.47;;
27666;SDS011;15074;50.940;5.282;2023-08-08T02:50:54;9.02;;;4.45;;
27666;SDS011;15074;50.940;5.282;2023-08-08T02:53:19;11.57;;;4.85;;
27666;SDS011;15074;50.940;5.282;2023-08-08T02:55:45;6.85;;;4.25;;
27666;SDS011;15074;50.940;5.282;2023-08-08T02:58:11;6.85;;;4.57;;
27666;SDS011;15074;50.940;5.282;2023-08-08T03:00:37;6.22;;;4.13;;
27666;SDS011;15074;50.940;5.282;2023-08-08T03:03:02;9.55;;;4.22;;
27666;SDS011;15074;50.940;5.282;2023-08-08T03:05:28;13.38;;;4.80;;
27666;SDS011;15074;50.940;5.282;2023-08-08T03:07:54;8.38;;;4.45;;
27666;SDS011;15074;50.940;5.282;2023-08-08T03:10:19;7.15;;;4.45;;
27666;SDS011;15074;50.940;5.282;2023-08-08T03:12:45;6.85;;;3.92;;
27666;SDS011;15074;50.940;5.282;2023-08-08T03:15:11;6.68;;;3.70;;
27666;SDS011;15074;50.940;5.282;2023-08-08T03:17:37;12.23;;;5.57;;
27666;SDS011;15074;50.940;5.282;2023-08-08T03:20:02;15.10;;;5.65;;
27666;SDS011;15074;50.940;5.282;2023-08-08T03:22:31;10.60;;;4.93;;
27666;SDS011;15074;50.940;5.282;2023-08-08T03:24:56;6.40;;;4.43;;
27666;SDS011;15074;50.940;5.282;2023-08-08T03:27:23;6.25;;;3.92;;
27666;SDS011;15074;50.940;5.282;2023-08-08T03:29:49;9.15;;;4.72;;
27666;SDS011;15074;50.940;5.282;2023-08-08T03:32:15;6.50;;;4.30;;
27666;SDS011;15074;50.940;5.282;2023-08-08T03:34:41;13.13;;;5.28;;
27666;SDS011;15074;50.940;5.282;2023-08-08T03:37:07;8.13;;;4.65;;
27666;SDS011;15074;50.940;5.282;2023-08-08T03:39:32;8.88;;;4.40;;
27666;SDS011;15074;50.940;5.282;2023-08-08T03:41:58;17.63;;;5.18;;
27666;SDS011;15074;50.940;5.282;2023-08-08T03:44:23;11.85;;;5.20;;
27666;SDS011;15074;50.940;5.282;2023-08-08T03:46:49;12.90;;;5.15;;
27666;SDS011;15074;50.940;5.282;2023-08-08T03:49:16;10.57;;;4.65;;
27666;SDS011;15074;50.940;5.282;2023-08-08T03:51:41;12.77;;;4.95;;
27666;SDS011;15074;50.940;5.282;2023-08-08T03:54:07;10.23;;;5.35;;
27666;SDS011;15074;50.940;5.282;2023-08-08T03:56:33;9.23;;;4.97;;
27666;SDS011;15074;50.940;5.282;2023-08-08T03:58:59;10.15;;;5.13;;
27666;SDS011;15074;50.940;5.282;2023-08-08T04:01:24;10.82;;;4.93;;
27666;SDS011;15074;50.940;5.282;2023-08-08T04:03:50;12.07;;;5.40;;
27666;SDS011;15074;50.940;5.282;2023-08-08T04:06:16;8.45;;;4.88;;
27666;SDS011;15074;50.940;5.282;2023-08-08T04:08:41;9.30;;;4.80;;
27666;SDS011;15074;50.940;5.282;2023-08-08T04:11:07;10.90;;;5.28;;
27666;SDS011;15074;50.940;5.282;2023-08-08T04:13:33;10.50;;;5.40;;
27666;SDS011;15074;50.940;5.282;2023-08-08T04:15:58;9.25;;;5.70;;
27666;SDS011;15074;50.940;5.282;2023-08-08T04:18:25;14.05;;;5.05;;
27666;SDS011;15074;50.940;5.282;2023-08-08T04:20:50;8.13;;;4.78;;
27666;SDS011;15074;50.940;5.282;2023-08-08T04:23:16;15.63;;;6.32;;
27666;SDS011;15074;50.940;5.282;2023-08-08T04:25:42;20.25;;;4.47;;
27666;SDS011;15074;50.940;5.282;2023-08-08T04:28:07;14.05;;;5.38;;
27666;SDS011;15074;50.940;5.282;2023-08-08T04:30:33;10.63;;;4.93;;
27666;SDS011;15074;50.940;5.282;2023-08-08T04:33:00;9.75;;;5.00;;
27666;SDS011;15074;50.940;5.282;2023-08-08T04:35:25;11.05;;;5.15;;
27666;SDS011;15074;50.940;5.282;2023-08-08T04:37:51;8.45;;;5.07;;
27666;SDS011;15074;50.940;5.282;2023-08-08T04:40:17;7.82;;;4.63;;
27666;SDS011;15074;50.940;5.282;2023-08-08T04:42:42;6.68;;;4.20;;
27666;SDS011;15074;50.940;5.282;2023-08-08T04:45:08;8.80;;;4.72;;
27666;SDS011;15074;50.940;5.282;2023-08-08T04:47:34;6.65;;;4.30;;
27666;SDS011;15074;50.940;5.282;2023-08-08T04:50:00;7.68;;;4.22;;
27666;SDS011;15074;50.940;5.282;2023-08-08T04:52:25;13.68;;;5.72;;
27666;SDS011;15074;50.940;5.282;2023-08-08T04:54:51;7.78;;;4.57;;
27666;SDS011;15074;50.940;5.282;2023-08-08T04:57:16;8.05;;;5.15;;
27666;SDS011;15074;50.940;5.282;2023-08-08T04:59:42;7.07;;;4.97;;
27666;SDS011;15074;50.940;5.282;2023-08-08T05:02:08;10.50;;;5.20;;
27666;SDS011;15074;50.940;5.282;2023-08-08T05:04:33;6.50;;;4.47;;
27666;SDS011;15074;50.940;5.282;2023-08-08T05:06:59;14.55;;;5.30;;
27666;SDS011;15074;50.940;5.282;2023-08-08T05:09:25;12.50;;;5.95;;
27666;SDS011;15074;50.940;5.282;2023-08-08T05:14:18;7.50;;;4.28;;
27666;SDS011;15074;50.940;5.282;2023-08-08T05:16:44;12.65;;;5.05;;
27666;SDS011;15074;50.940;5.282;2023-08-08T05:19:11;8.65;;;5.93;;
27666;SDS011;15074;50.940;5.282;2023-08-08T05:21:37;8.35;;;4.90;;
27666;SDS011;15074;50.940;5.282;2023-08-08T05:24:02;11.32;;;5.05;;
27666;SDS011;15074;50.940;5.282;2023-08-08T05:26:28;10.23;;;4.80;;
27666;SDS011;15074;50.940;5.282;2023-08-08T05:28:54;11.32;;;4.95;;
27666;SDS011;15074;50.940;5.282;2023-08-08T05:31:19;6.30;;;3.58;;
27666;SDS011;15074;50.940;5.282;2023-08-08T05:33:45;12.90;;;4.40;;
27666;SDS011;15074;50.940;5.282;2023-08-08T05:36:13;7.85;;;3.42;;
27666;SDS011;15074;50.940;5.282;2023-08-08T05:38:38;7.43;;;4.25;;
27666;SDS011;15074;50.940;5.282;2023-08-08T05:41:04;8.77;;;4.47;;
27666;SDS011;15074;50.940;5.282;2023-08-08T05:43:29;8.43;;;3.88;;
27666;SDS011;15074;50.940;5.282;2023-08-08T05:45:55;8.50;;;3.17;;
27666;SDS011;15074;50.940;5.282;2023-08-08T05:48:21;7.65;;;3.55;;
27666;SDS011;15074;50.940;5.282;2023-08-08T05:50:46;10.27;;;3.88;;
27666;SDS011;15074;50.940;5.282;2023-08-08T05:53:12;8.98;;;4.00;;
27666;SDS011;15074;50.940;5.282;2023-08-08T05:55:37;6.57;;;3.72;;
27666;SDS011;15074;50.940;5.282;2023-08-08T05:58:06;8.43;;;3.20;;
27666;SDS011;15074;50.940;5.282;2023-08-08T06:00:32;5.80;;;3.90;;
27666;SDS011;15074;50.940;5.282;2023-08-08T06:02:57;11.18;;;4.18;;
27666;SDS011;15074;50.940;5.282;2023-08-08T06:05:23;7.43;;;4.18;;
27666;SDS011;15074;50.940;5.282;2023-08-08T06:07:49;8.18;;;3.90;;
27666;SDS011;15074;50.940;5.282;2023-08-08T06:10:15;7.78;;;3.63;;
27666;SDS011;15074;50.940;5.282;2023-08-08T06:12:41;7.60;;;3.72;;
27666;SDS011;15074;50.940;5.282;2023-08-08T06:15:06;6.38;;;3.47;;
27666;SDS011;15074;50.940;5.282;2023-08-08T06:17:33;7.95;;;3.35;;
27666;SDS011;15074;50.940;5.282;2023-08-08T06:19:59;5.00;;;3.05;;
27666;SDS011;15074;50.940;5.282;2023-08-08T06:22:25;5.63;;;3.15;;
27666;SDS011;15074;50.940;5.282;2023-08-08T06:24:50;6.32;;;3.53;;
27666;SDS011;15074;50.940;5.282;2023-08-08T06:27:17;8.23;;;3.78;;
27666;SDS011;15074;50.940;5.282;2023-08-08T06:29:42;8.00;;;3.85;;
27666;SDS011;15074;50.940;5.282;2023-08-08T06:32:08;5.20;;;3.65;;
27666;SDS011;15074;50.940;5.282;2023-08-08T06:34:34;8.43;;;3.97;;
27666;SDS011;15074;50.940;5.282;2023-08-08T06:36:59;7.68;;;3.10;;
27666;SDS011;15074;50.940;5.282;2023-08-08T06:39:25;7.05;;;3.15;;
27666;SDS011;15074;50.940;5.282;2023-08-08T06:41:51;6.38;;;2.97;;
27666;SDS011;15074;50.940;5.282;2023-08-08T06:44:16;15.00;;;3.15;;
27666;SDS011;15074;50.940;5.282;2023-08-08T06:46:42;6.35;;;3.20;;
27666;SDS011;15074;50.940;5.282;2023-08-08T06:49:08;6.38;;;3.10;;
27666;SDS011;15074;50.940;5.282;2023-08-08T06:51:34;5.07;;;2.70;;
27666;SDS011;15074;50.940;5.282;2023-08-08T06:54:00;8.27;;;3.20;;
27666;SDS011;15074;50.940;5.282;2023-08-08T06:56:26;9.40;;;2.80;;
27666;SDS011;15074;50.940;5.282;2023-08-08T06:58:52;5.38;;;2.85;;
27666;SDS011;15074;50.940;5.282;2023-08-08T07:01:18;5.57;;;2.70;;
27666;SDS011;15074;50.940;5.282;2023-08-08T07:03:44;11.48;;;2.78;;
27666;SDS011;15074;50.940;5.282;2023-08-08T07:06:10;5.57;;;3.22;;
27666;SDS011;15074;50.940;5.282;2023-08-08T07:08:35;6.43;;;2.85;;
27666;SDS011;15074;50.940;5.282;2023-08-08T07:11:04;7.20;;;3.00;;
27666;SDS011;15074;50.940;5.282;2023-08-08T07:13:30;10.60;;;3.33;;
27666;SDS011;15074;50.940;5.282;2023-08-08T07:15:56;4.90;;;3.53;;
27666;SDS011;15074;50.940;5.282;2023-08-08T07:18:22;10.70;;;3.90;;
27666;SDS011;15074;50.940;5.282;2023-08-08T07:20:48;7.78;;;3.95;;
27666;SDS011;15074;50.940;5.282;2023-08-08T07:23:14;8.15;;;4.05;;
27666;SDS011;15074;50.940;5.282;2023-08-08T07:25:45;4.97;;;3.15;;
27666;SDS011;15074;50.940;5.282;2023-08-08T07:28:11;5.32;;;3.20;;
27666;SDS011;15074;50.940;5.282;2023-08-08T07:30:39;6.88;;;2.75;;
27666;SDS011;15074;50.940;5.282;2023-08-08T07:33:05;5.82;;;2.75;;
27666;SDS011;15074;50.940;5.282;2023-08-08T07:35:33;7.55;;;3.78;;
27666;SDS011;15074;50.940;5.282;2023-08-08T07:37:59;6.80;;;2.97;;
27666;SDS011;15074;50.940;5.282;2023-08-08T07:40:25;6.72;;;3.08;;
27666;SDS011;15074;50.940;5.282;2023-08-08T07:42:51;6.15;;;3.63;;
27666;SDS011;15074;50.940;5.282;2023-08-08T07:45:16;4.80;;;2.88;;
27666;SDS011;15074;50.940;5.282;2023-08-08T07:47:42;6.90;;;3.38;;
27666;SDS011;15074;50.940;5.282;2023-08-08T07:50:08;6.35;;;3.30;;
27666;SDS011;15074;50.940;5.282;2023-08-08T07:52:34;6.28;;;2.97;;
27666;SDS011;15074;50.940;5.282;2023-08-08T07:55:00;4.35;;;2.13;;
27666;SDS011;15074;50.940;5.282;2023-08-08T07:57:26;9.80;;;3.33;;
27666;SDS011;15074;50.940;5.282;2023-08-08T07:59:52;7.10;;;2.85;;
27666;SDS011;15074;50.940;5.282;2023-08-08T08:02:18;5.00;;;2.63;;
27666;SDS011;15074;50.940;5.282;2023-08-08T08:04:44;3.90;;;2.05;;
27666;SDS011;15074;50.940;5.282;2023-08-08T08:07:09;7.70;;;2.25;;
27666;SDS011;15074;50.940;5.282;2023-08-08T08:09:35;6.10;;;2.60;;
27666;SDS011;15074;50.940;5.282;2023-08-08T08:12:02;7.20;;;2.30;;
27666;SDS011;15074;50.940;5.282;2023-08-08T08:14:28;7.75;;;2.53;;
27666;SDS011;15074;50.940;5.282;2023-08-08T08:16:54;4.43;;;2.25;;
27666;SDS011;15074;50.940;5.282;2023-08-08T08:19:19;2.70;;;1.88;;
27666;SDS011;15074;50.940;5.282;2023-08-08T08:21:45;6.65;;;2.20;;
27666;SDS011;15074;50.940;5.282;2023-08-08T08:24:11;3.90;;;2.28;;
27666;SDS011;15074;50.940;5.282;2023-08-08T08:26:36;7.22;;;2.25;;
27666;SDS011;15074;50.940;5.282;2023-08-08T08:29:02;5.47;;;1.95;;
27666;SDS011;15074;50.940;5.282;2023-08-08T08:31:28;3.63;;;2.28;;
27666;SDS011;15074;50.940;5.282;2023-08-08T08:33:54;5.20;;;1.98;;
27666;SDS011;15074;50.940;5.282;2023-08-08T08:36:20;4.82;;;2.08;;
27666;SDS011;15074;50.940;5.282;2023-08-08T08:38:46;5.18;;;2.00;;
27666;SDS011;15074;50.940;5.282;2023-08-08T08:41:14;7.00;;;2.05;;
27666;SDS011;15074;50.940;5.282;2023-08-08T08:43:42;4.57;;;1.95;;
27666;SDS011;15074;50.940;5.282;2023-08-08T08:46:08;3.30;;;1.80;;
27666;SDS011;15074;50.940;5.282;2023-08-08T08:48:36;4.18;;;1.70;;
27666;SDS011;15074;50.940;5.282;2023-08-08T08:51:02;4.10;;;2.50;;
27666;SDS011;15074;50.940;5.282;2023-08-08T08:53:28;11.27;;;2.10;;
27666;SDS011;15074;50.940;5.282;2023-08-08T08:55:56;5.38;;;2.25;;
27666;SDS011;15074;50.940;5.282;2023-08-08T08:58:25;6.30;;;2.83;;
27666;SDS011;15074;50.940;5.282;2023-08-08T09:00:53;3.65;;;2.38;;
27666;SDS011;15074;50.940;5.282;2023-08-08T09:03:19;5.15;;;2.90;;
27666;SDS011;15074;50.940;5.282;2023-08-08T09:05:45;5.43;;;2.70;;
27666;SDS011;15074;50.940;5.282;2023-08-08T09:10:40;3.60;;;2.30;;
27666;SDS011;15074;50.940;5.282;2023-08-08T09:13:06;6.10;;;2.53;;
27666;SDS011;15074;50.940;5.282;2023-08-08T09:15:32;4.85;;;2.05;;
27666;SDS011;15074;50.940;5.282;2023-08-08T09:17:59;7.97;;;2.47;;
27666;SDS011;15074;50.940;5.282;2023-08-08T09:20:25;6.55;;;2.70;;
27666;SDS011;15074;50.940;5.282;2023-08-08T09:22:55;5.07;;;2.70;;
27666;SDS011;15074;50.940;5.282;2023-08-08T09:25:21;4.60;;;2.30;;
27666;SDS011;15074;50.940;5.282;2023-08-08T09:27:48;5.00;;;2.00;;
27666;SDS011;15074;50.940;5.282;2023-08-08T09:30:15;3.03;;;2.00;;
27666;SDS011;15074;50.940;5.282;2023-08-08T09:32:42;7.50;;;2.47;;
27666;SDS011;15074;50.940;5.282;2023-08-08T09:35:09;8.35;;;2.10;;
27666;SDS011;15074;50.940;5.282;2023-08-08T09:37:35;3.63;;;2.00;;
27666;SDS011;15074;50.940;5.282;2023-08-08T09:40:02;3.58;;;1.80;;
27666;SDS011;15074;50.940;5.282;2023-08-08T09:42:30;5.18;;;2.22;;
27666;SDS011;15074;50.940;5.282;2023-08-08T09:44:57;4.72;;;2.13;;
27666;SDS011;15074;50.940;5.282;2023-08-08T09:47:23;5.30;;;2.20;;
27666;SDS011;15074;50.940;5.282;2023-08-08T09:49:49;3.17;;;1.90;;
27666;SDS011;15074;50.940;5.282;2023-08-08T09:52:15;5.10;;;2.15;;
27666;SDS011;15074;50.940;5.282;2023-08-08T09:54:41;4.20;;;1.90;;
27666;SDS011;15074;50.940;5.282;2023-08-08T09:57:08;2.95;;;1.83;;
27666;SDS011;15074;50.940;5.282;2023-08-08T09:59:34;3.90;;;2.17;;
27666;SDS011;15074;50.940;5.282;2023-08-08T10:02:00;4.50;;;2.20;;
27666;SDS011;15074;50.940;5.282;2023-08-08T10:04:27;5.30;;;1.80;;
27666;SDS011;15074;50.940;5.282;2023-08-08T10:06:53;4.00;;;2.38;;
27666;SDS011;15074;50.940;5.282;2023-08-08T10:09:18;5.40;;;1.98;;
27666;SDS011;15074;50.940;5.282;2023-08-08T10:11:45;4.70;;;1.98;;
27666;SDS011;15074;50.940;5.282;2023-08-08T10:14:12;4.00;;;2.00;;
27666;SDS011;15074;50.940;5.282;2023-08-08T10:16:39;3.13;;;1.77;;
27666;SDS011;15074;50.940;5.282;2023-08-08T10:19:09;2.88;;;1.52;;
27666;SDS011;15074;50.940;5.282;2023-08-08T10:21:35;3.80;;;1.60;;
27666;SDS011;15074;50.940;5.282;2023-08-08T10:24:06;3.25;;;1.75;;
27666;SDS011;15074;50.940;5.282;2023-08-08T10:26:33;1.98;;;1.70;;
27666;SDS011;15074;50.940;5.282;2023-08-08T10:29:17;3.22;;;1.92;;
27666;SDS011;15074;50.940;5.282;2023-08-08T10:34:15;7.10;;;1.77;;
27666;SDS011;15074;50.940;5.282;2023-08-08T10:36:50;4.38;;;1.95;;
27666;SDS011;15074;50.940;5.282;2023-08-08T10:39:17;2.35;;;1.77;;
27666;SDS011;15074;50.940;5.282;2023-08-08T10:41:49;3.67;;;2.00;;
27666;SDS011;15074;50.940;5.282;2023-08-08T10:44:24;3.88;;;1.80;;
27666;SDS011;15074;50.940;5.282;2023-08-08T10:46:50;5.07;;;2.17;;
27666;SDS011;15074;50.940;5.282;2023-08-08T10:49:17;4.85;;;2.17;;
27666;SDS011;15074;50.940;5.282;2023-08-08T10:51:44;4.38;;;2.00;;
27666;SDS011;15074;50.940;5.282;2023-08-08T10:56:48;4.53;;;1.88;;
27666;SDS011;15074;50.940;5.282;2023-08-08T10:59:19;3.97;;;1.70;;
27666;SDS011;15074;50.940;5.282;2023-08-08T11:01:48;3.65;;;1.90;;
27666;SDS011;15074;50.940;5.282;2023-08-08T11:04:18;2.97;;;1.45;;
27666;SDS011;15074;50.940;5.282;2023-08-08T11:06:45;2.92;;;1.50;;
27666;SDS011;15074;50.940;5.282;2023-08-08T11:09:12;2.72;;;1.33;;
27666;SDS011;15074;50.940;5.282;2023-08-08T11:11:40;3.65;;;1.67;;
27666;SDS011;15074;50.940;5.282;2023-08-08T11:14:15;3.35;;;1.50;;
27666;SDS011;15074;50.940;5.282;2023-08-08T11:16:42;4.25;;;1.52;;
27666;SDS011;15074;50.940;5.282;2023-08-08T11:19:08;2.33;;;1.60;;
27666;SDS011;15074;50.940;5.282;2023-08-08T11:21:44;4.45;;;1.55;;
27666;SDS011;15074;50.940;5.282;2023-08-08T11:24:11;4.05;;;1.60;;
27666;SDS011;15074;50.940;5.282;2023-08-08T11:26:38;4.35;;;1.60;;
27666;SDS011;15074;50.940;5.282;2023-08-08T11:29:05;2.40;;;1.50;;
27666;SDS011;15074;50.940;5.282;2023-08-08T11:31:32;3.53;;;1.77;;
27666;SDS011;15074;50.940;5.282;2023-08-08T11:33:59;2.30;;;1.60;;
27666;SDS011;15074;50.940;5.282;2023-08-08T11:36:25;1.75;;;1.20;;
27666;SDS011;15074;50.940;5.282;2023-08-08T11:38:55;3.35;;;1.50;;
27666;SDS011;15074;50.940;5.282;2023-08-08T11:41:23;3.35;;;1.70;;
27666;SDS011;15074;50.940;5.282;2023-08-08T11:43:52;6.55;;;1.50;;
27666;SDS011;15074;50.940;5.282;2023-08-08T11:46:19;3.80;;;1.50;;
27666;SDS011;15074;50.940;5.282;2023-08-08T11:48:48;4.30;;;1.80;;
27666;SDS011;15074;50.940;5.282;2023-08-08T11:51:14;4.18;;;1.55;;
27666;SDS011;15074;50.940;5.282;2023-08-08T11:56:15;4.65;;;2.25;;
27666;SDS011;15074;50.940;5.282;2023-08-08T11:58:42;2.10;;;1.60;;
27666;SDS011;15074;50.940;5.282;2023-08-08T12:01:08;4.20;;;1.70;;
27666;SDS011;15074;50.940;5.282;2023-08-08T12:03:35;6.15;;;1.92;;
27666;SDS011;15074;50.940;5.282;2023-08-08T12:06:10;2.05;;;1.10;;
27666;SDS011;15074;50.940;5.282;2023-08-08T12:08:37;3.30;;;1.20;;
27666;SDS011;15074;50.940;5.282;2023-08-08T12:11:05;4.65;;;1.52;;
27666;SDS011;15074;50.940;5.282;2023-08-08T12:13:31;2.65;;;1.10;;
27666;SDS011;15074;50.940;5.282;2023-08-08T12:15:58;4.17;;;1.50;;
27666;SDS011;15074;50.940;5.282;2023-08-08T12:18:24;1.30;;;1.00;;
27666;SDS011;15074;50.940;5.282;2023-08-08T12:20:49;3.53;;;1.23;;
27666;SDS011;15074;50.940;5.282;2023-08-08T12:23:15;3.63;;;1.45;;
27666;SDS011;15074;50.940;5.282;2023-08-08T12:25:41;2.05;;;0.90;;
27666;SDS011;15074;50.940;5.282;2023-08-08T12:28:07;3.53;;;1.27;;
27666;SDS011;15074;50.940;5.282;2023-08-08T12:30:33;2.72;;;1.00;;
27666;SDS011;15074;50.940;5.282;2023-08-08T12:32:59;1.70;;;1.08;;
27666;SDS011;15074;50.940;5.282;2023-08-08T12:35:25;1.65;;;1.00;;
27666;SDS011;15074;50.940;5.282;2023-08-08T12:37:52;6.80;;;1.20;;
27666;SDS011;15074;50.940;5.282;2023-08-08T12:40:18;2.13;;;1.13;;
27666;SDS011;15074;50.940;5.282;2023-08-08T12:42:44;2.22;;;0.98;;
27666;SDS011;15074;50.940;5.282;2023-08-08T12:45:09;3.63;;;1.00;;
27666;SDS011;15074;50.940;5.282;2023-08-08T12:47:36;3.42;;;0.93;;
27666;SDS011;15074;50.940;5.282;2023-08-08T12:50:05;2.00;;;0.75;;
27666;SDS011;15074;50.940;5.282;2023-08-08T12:52:32;1.67;;;0.90;;
27666;SDS011;15074;50.940;5.282;2023-08-08T12:54:59;2.13;;;0.85;;
27666;SDS011;15074;50.940;5.282;2023-08-08T12:57:25;1.83;;;0.88;;
27666;SDS011;15074;50.940;5.282;2023-08-08T12:59:50;1.48;;;0.70;;
27666;SDS011;15074;50.940;5.282;2023-08-08T13:02:16;1.50;;;0.80;;
27666;SDS011;15074;50.940;5.282;2023-08-08T13:04:42;1.45;;;0.82;;
27666;SDS011;15074;50.940;5.282;2023-08-08T13:07:07;2.28;;;0.90;;
27666;SDS011;15074;50.940;5.282;2023-08-08T13:09:34;1.52;;;0.80;;
27666;SDS011;15074;50.940;5.282;2023-08-08T13:12:00;1.10;;;0.80;;
27666;SDS011;15074;50.940;5.282;2023-08-08T13:14:25;2.38;;;1.02;;
27666;SDS011;15074;50.940;5.282;2023-08-08T13:16:51;1.30;;;1.02;;
27666;SDS011;15074;50.940;5.282;2023-08-08T13:19:17;1.73;;;0.98;;
27666;SDS011;15074;50.940;5.282;2023-08-08T13:21:46;2.13;;;0.90;;
27666;SDS011;15074;50.940;5.282;2023-08-08T13:24:12;1.27;;;0.70;;
27666;SDS011;15074;50.940;5.282;2023-08-08T13:26:38;1.60;;;0.80;;
27666;SDS011;15074;50.940;5.282;2023-08-08T13:29:04;2.92;;;0.98;;
27666;SDS011;15074;50.940;5.282;2023-08-08T13:31:30;2.33;;;0.80;;
27666;SDS011;15074;50.940;5.282;2023-08-08T13:33:56;2.83;;;1.00;;
27666;SDS011;15074;50.940;5.282;2023-08-08T13:36:21;2.35;;;0.77;;
27666;SDS011;15074;50.940;5.282;2023-08-08T13:38:47;3.10;;;0.98;;
27666;SDS011;15074;50.940;5.282;2023-08-08T13:41:12;2.80;;;0.73;;
27666;SDS011;15074;50.940;5.282;2023-08-08T13:43:38;1.35;;;0.95;;
27666;SDS011;15074;50.940;5.282;2023-08-08T13:46:04;1.23;;;0.82;;
27666;SDS011;15074;50.940;5.282;2023-08-08T13:48:33;1.33;;;0.75;;
27666;SDS011;15074;50.940;5.282;2023-08-08T13:50:59;2.50;;;1.20;;
27666;SDS011;15074;50.940;5.282;2023-08-08T13:53:25;3.08;;;0.80;;
27666;SDS011;15074;50.940;5.282;2023-08-08T13:55:50;2.00;;;1.10;;
27666;SDS011;15074;50.940;5.282;2023-08-08T13:58:16;2.85;;;0.95;;
27666;SDS011;15074;50.940;5.282;2023-08-08T14:00:42;3.28;;;0.70;;
27666;SDS011;15074;50.940;5.282;2023-08-08T14:03:07;1.30;;;0.77;;
27666;SDS011;15074;50.940;5.282;2023-08-08T14:05:33;1.50;;;0.70;;
27666;SDS011;15074;50.940;5.282;2023-08-08T14:07:59;1.30;;;0.77;;
27666;SDS011;15074;50.940;5.282;2023-08-08T14:10:25;2.42;;;0.88;;
27666;SDS011;15074;50.940;5.282;2023-08-08T14:12:50;1.20;;;0.73;;
27666;SDS011;15074;50.940;5.282;2023-08-08T14:15:16;1.60;;;0.70;;
27666;SDS011;15074;50.940;5.282;2023-08-08T14:17:42;2.83;;;0.90;;
27666;SDS011;15074;50.940;5.282;2023-08-08T14:20:08;2.42;;;0.80;;
27666;SDS011;15074;50.940;5.282;2023-08-08T14:22:34;1.50;;;0.88;;
27666;SDS011;15074;50.940;5.282;2023-08-08T14:25:00;1.40;;;0.82;;
27666;SDS011;15074;50.940;5.282;2023-08-08T14:27:27;1.95;;;0.88;;
27666;SDS011;15074;50.940;5.282;2023-08-08T14:29:52;2.13;;;1.00;;
27666;SDS011;15074;50.940;5.282;2023-08-08T14:32:18;2.25;;;1.10;;
27666;SDS011;15074;50.940;5.282;2023-08-08T14:34:43;1.90;;;0.90;;
27666;SDS011;15074;50.940;5.282;2023-08-08T14:37:09;2.17;;;0.80;;
27666;SDS011;15074;50.940;5.282;2023-08-08T14:39:35;1.38;;;0.77;;
27666;SDS011;15074;50.940;5.282;2023-08-08T14:42:01;2.55;;;1.02;;
27666;SDS011;15074;50.940;5.282;2023-08-08T14:44:27;4.35;;;1.20;;
27666;SDS011;15074;50.940;5.282;2023-08-08T14:46:53;2.45;;;0.93;;
27666;SDS011;15074;50.940;5.282;2023-08-08T14:49:18;1.67;;;0.90;;
27666;SDS011;15074;50.940;5.282;2023-08-08T14:51:44;2.45;;;1.10;;
27666;SDS011;15074;50.940;5.282;2023-08-08T14:54:10;2.88;;;0.80;;
27666;SDS011;15074;50.940;5.282;2023-08-08T14:56:36;1.73;;;0.70;;